Leatherhead, United Kingdom
Current Conditions -  °F | °C
As of 2:50 PM on Friday 31 Oct 2014 (Local Time) from EGKK Reporting Station
Clear Clear  
Wind Chill: 68°   Ceiling: Unl
Heat Index: 68°   Visibility: 6mi
Dew Point: 55°   Wind: 8mph
Humidity: 64%   Direction: 160°SSE
Pressure: 30"   Gusts: NA
Location:  51.3°N, 0.33°W
Report Text: EGKK 311450Z 16007KT 120V190 CAVOK 20/13 Q1016
Loading
Personal Weather Stations






























Interactive Weather Map
Tropical Storm Tracking
New forecast layout! Learn more

10-Day Weather Forecast

Advertisements
Track Severe Weather on mobile